createdAt,value
2019-05-05T00:01:49.400Z,45.70
2019-05-05T00:04:39.903Z,33.57
2019-05-05T00:07:14.886Z,37.10
2019-05-05T00:09:47.810Z,34.67
2019-05-05T00:12:38.126Z,26.10
2019-05-05T00:15:29.105Z,28.13
2019-05-05T00:18:02.380Z,26.30
2019-05-05T00:20:35.245Z,29.73
2019-05-05T00:23:07.981Z,34.00
2019-05-05T00:25:40.855Z,26.63
2019-05-05T00:28:14.418Z,78.63
2019-05-05T00:30:47.431Z,25.67
2019-05-05T00:33:20.015Z,23.87
2019-05-05T00:35:54.496Z,29.83
2019-05-05T00:38:28.380Z,29.17
2019-05-05T00:41:00.995Z,22.23
2019-05-05T00:43:34.499Z,19.43
2019-05-05T00:46:08.879Z,26.67
2019-05-05T00:48:44.452Z,30.03
2019-05-05T00:51:17.421Z,20.40
2019-05-05T00:53:50.319Z,30.50
2019-05-05T00:56:24.907Z,19.47
2019-05-05T00:58:58.996Z,40.53
2019-05-05T01:01:34.284Z,40.27
2019-05-05T01:04:07.536Z,29.60
2019-05-05T01:06:40.356Z,24.27
2019-05-05T01:09:14.918Z,23.17
2019-05-05T01:11:49.580Z,16.93
2019-05-05T01:14:22.350Z,27.67
2019-05-05T01:16:55.130Z,18.97
2019-05-05T01:19:27.950Z,16.77
2019-05-05T01:22:00.561Z,18.60
2019-05-05T01:24:34.401Z,22.70
2019-05-05T01:27:07.110Z,20.23
2019-05-05T01:29:39.795Z,18.93
2019-05-05T01:32:15.230Z,21.40
2019-05-05T01:34:48.305Z,25.13
2019-05-05T01:37:22.792Z,27.97
2019-05-05T01:39:55.165Z,20.20
2019-05-05T01:42:27.692Z,19.87
2019-05-05T01:45:01.951Z,17.77
2019-05-05T01:47:34.809Z,17.93
2019-05-05T01:50:18.296Z,22.30
2019-05-05T01:52:44.998Z,19.50
2019-05-05T01:55:17.472Z,20.80
2019-05-05T01:57:50.410Z,24.53
2019-05-05T02:00:25.236Z,24.60
2019-05-05T02:02:57.515Z,25.30
2019-05-05T02:05:30.155Z,22.77
2019-05-05T02:08:04.889Z,29.77
2019-05-05T02:10:37.445Z,21.07
2019-05-05T02:13:10.390Z,20.20
2019-05-05T02:15:44.568Z,21.80
2019-05-05T02:18:18.458Z,19.13
2019-05-05T02:21:06.385Z,23.80
2019-05-05T02:23:39.218Z,27.93
2019-05-05T02:26:11.981Z,28.37
2019-05-05T02:28:54.125Z,23.67
2019-05-05T02:31:45.419Z,24.20
2019-05-05T02:34:18.331Z,25.33
2019-05-05T02:36:51.041Z,25.63
2019-05-05T02:39:23.993Z,22.40
2019-05-05T02:41:58.072Z,19.83
2019-05-05T02:44:34.736Z,18.37
2019-05-05T02:47:10.615Z,21.60
2019-05-05T02:49:45.843Z,22.30
2019-05-05T02:52:19.608Z,19.40
2019-05-05T02:54:53.726Z,18.77
2019-05-05T02:57:26.599Z,21.97
2019-05-05T03:00:00.782Z,19.80
2019-05-05T03:02:35.354Z,18.07
2019-05-05T03:05:10.390Z,20.43
2019-05-05T03:07:43.733Z,17.73
2019-05-05T03:10:17.077Z,17.63
2019-05-05T03:12:49.735Z,20.13
2019-05-05T03:15:33.669Z,21.80
2019-05-05T03:18:06.330Z,23.00
2019-05-05T03:20:38.930Z,22.90
2019-05-05T03:23:13.592Z,22.07
2019-05-05T03:25:46.445Z,18.10
2019-05-05T03:28:19.365Z,19.67
2019-05-05T03:30:55.788Z,18.60
2019-05-05T03:33:27.586Z,26.17
2019-05-05T03:36:00.263Z,19.60
2019-05-05T03:38:33.770Z,19.07
2019-05-05T03:41:08.460Z,21.00
2019-05-05T03:43:59.249Z,17.17
2019-05-05T03:46:34.584Z,15.63
2019-05-05T03:49:08.039Z,18.47
2019-05-05T03:51:40.785Z,15.17
2019-05-05T03:54:14.608Z,14.20
2019-05-05T03:56:48.065Z,19.23
2019-05-05T03:59:20.915Z,17.27
2019-05-05T04:01:56.105Z,20.07
2019-05-05T04:04:30.314Z,16.33
2019-05-05T04:07:04.756Z,16.27
2019-05-05T04:09:37.516Z,16.93
2019-05-05T04:12:10.220Z,15.63
2019-05-05T04:14:44.620Z,13.50
2019-05-05T04:17:18.680Z,11.97
2019-05-05T04:19:54.218Z,10.80
2019-05-05T04:22:26.961Z,12.53
2019-05-05T04:24:59.675Z,12.67
2019-05-05T04:27:34.240Z,14.90
2019-05-05T04:30:07.948Z,18.17
2019-05-05T04:32:40.525Z,14.40
2019-05-05T04:35:14.048Z,12.37
2019-05-05T04:37:46.916Z,15.23
2019-05-05T04:40:19.561Z,10.43
2019-05-05T04:42:54.447Z,10.27
2019-05-05T04:45:26.365Z,9.70
2019-05-05T04:48:00.490Z,5.90
2019-05-05T04:50:43.931Z,9.27
2019-05-05T04:53:17.930Z,9.27
2019-05-05T04:55:53.574Z,7.87
2019-05-05T04:58:26.276Z,13.70
2019-05-05T05:00:58.895Z,7.73
2019-05-05T05:03:39.086Z,10.50
2019-05-05T05:06:14.672Z,10.90
2019-05-05T05:08:47.616Z,9.80
2019-05-05T05:11:20.326Z,8.10
2019-05-05T05:13:54.393Z,8.40
2019-05-05T05:16:27.201Z,9.97
2019-05-05T05:18:59.790Z,9.40
2019-05-05T05:21:34.129Z,10.33
2019-05-05T05:24:06.597Z,11.40
2019-05-05T05:26:40.270Z,6.80
2019-05-05T05:29:14.979Z,7.70
2019-05-05T05:31:47.659Z,9.93
2019-05-05T05:34:20.450Z,9.93
2019-05-05T05:36:53.698Z,7.37
2019-05-05T05:39:40.203Z,9.83
2019-05-05T05:42:13.718Z,7.37
2019-05-05T05:44:47.900Z,11.83
2019-05-05T05:47:34.565Z,8.83
2019-05-05T05:50:10.435Z,6.83
2019-05-05T05:52:44.432Z,7.70
2019-05-05T05:55:16.930Z,5.33
2019-05-05T05:57:50.075Z,5.87
2019-05-05T06:00:23.768Z,7.53
2019-05-05T06:02:56.695Z,6.17
2019-05-05T06:05:29.170Z,5.33
2019-05-05T06:08:01.813Z,5.10
2019-05-05T06:10:34.306Z,4.00
2019-05-05T06:13:07.225Z,6.67
2019-05-05T06:15:39.795Z,5.93
2019-05-05T06:18:13.830Z,3.33
2019-05-05T06:20:46.855Z,3.93
2019-05-05T06:23:19.526Z,5.43
2019-05-05T06:25:52.075Z,7.70
2019-05-05T06:28:24.823Z,6.87
2019-05-05T06:30:57.451Z,8.47
2019-05-05T06:33:30.042Z,4.23
2019-05-05T06:36:03.757Z,5.03
2019-05-05T06:38:36.751Z,5.93
2019-05-05T06:41:27.263Z,5.33
2019-05-05T06:44:07.461Z,4.57
2019-05-05T06:46:59.040Z,4.57
2019-05-05T06:49:31.936Z,6.67
2019-05-05T06:52:04.620Z,3.43
2019-05-05T06:54:37.775Z,4.13
2019-05-05T06:57:10.344Z,7.70
2019-05-05T06:59:43.879Z,4.00
2019-05-05T07:02:16.780Z,5.43
2019-05-05T07:04:49.278Z,3.73
2019-05-05T07:07:23.621Z,5.10
2019-05-05T07:09:56.670Z,3.60
2019-05-05T07:12:29.824Z,2.80
2019-05-05T07:15:04.238Z,6.20
2019-05-05T07:17:36.535Z,4.40
2019-05-05T07:20:09.509Z,5.07
2019-05-05T07:22:55.719Z,4.87
2019-05-05T07:25:16.310Z,2.23
2019-05-05T07:27:48.900Z,1.80
2019-05-05T07:30:21.486Z,3.43
2019-05-05T07:32:55.291Z,3.37
2019-05-05T07:35:35.822Z,2.77
2019-05-05T07:38:08.481Z,5.80
2019-05-05T07:40:41.060Z,3.13
2019-05-05T07:43:14.637Z,5.40
2019-05-05T07:45:47.586Z,3.27
2019-05-05T07:48:20.771Z,2.87
2019-05-05T07:51:01.953Z,4.27
2019-05-05T07:53:28.140Z,3.83
2019-05-05T07:56:00.852Z,3.57
2019-05-05T07:58:34.507Z,3.13
2019-05-05T08:01:07.425Z,4.70
2019-05-05T08:03:40.027Z,2.93
2019-05-05T08:06:14.550Z,4.80
2019-05-05T08:08:47.330Z,7.07
2019-05-05T08:11:19.875Z,4.07
2019-05-05T08:13:54.738Z,5.47
2019-05-05T08:16:33.734Z,3.37
2019-05-05T08:19:13.861Z,3.63
2019-05-05T08:21:46.715Z,2.60
2019-05-05T08:24:21.095Z,4.53
2019-05-05T08:26:55.613Z,3.80
2019-05-05T08:29:34.543Z,4.47
2019-05-05T08:32:13.571Z,2.70
2019-05-05T08:34:57.440Z,3.33
2019-05-05T08:37:20.336Z,2.20
2019-05-05T08:39:54.011Z,3.70
2019-05-05T08:42:26.990Z,1.77
2019-05-05T08:44:59.500Z,3.13
2019-05-05T08:47:34.435Z,2.93
2019-05-05T08:50:08.032Z,2.80
2019-05-05T08:52:40.731Z,1.93
2019-05-05T08:55:14.021Z,4.67
2019-05-05T08:57:47.990Z,4.60
2019-05-05T09:00:21.755Z,3.67
2019-05-05T09:02:54.915Z,3.43
2019-05-05T09:05:27.560Z,2.57
2019-05-05T09:08:00.519Z,2.87
2019-05-05T09:10:34.318Z,5.23
2019-05-05T09:13:07.675Z,2.50
2019-05-05T09:15:44.110Z,4.10
2019-05-05T09:18:17.575Z,2.20
2019-05-05T09:20:50.350Z,2.20
2019-05-05T09:23:23.996Z,1.93
2019-05-05T09:26:04.411Z,4.63
2019-05-05T09:28:38.746Z,5.60
2019-05-05T09:31:11.494Z,3.87
2019-05-05T09:33:44.216Z,3.47
2019-05-05T09:36:17.155Z,2.53
2019-05-05T09:38:50.165Z,2.20
2019-05-05T09:41:23.537Z,3.33
2019-05-05T09:43:56.737Z,4.87
2019-05-05T09:46:29.416Z,96.80
2019-05-05T09:49:01.901Z,46.13
2019-05-05T09:51:34.854Z,2.50
2019-05-05T09:54:13.895Z,2.90
2019-05-05T09:56:44.327Z,2.57
2019-05-05T09:59:16.789Z,86.80
2019-05-05T10:01:50.290Z,61.40
2019-05-05T10:04:24.339Z,3.50
2019-05-05T10:06:57.307Z,2.43
2019-05-05T10:09:29.760Z,2.87
2019-05-05T10:12:04.515Z,1.80
2019-05-05T10:14:36.914Z,3.77
2019-05-05T10:17:09.870Z,52.10
2019-05-05T10:19:44.027Z,3.07
2019-05-05T10:22:16.898Z,4.50
2019-05-05T10:24:54.240Z,2.43
2019-05-05T10:27:25.806Z,79.03
2019-05-05T10:29:58.701Z,83.90
2019-05-05T10:32:31.590Z,7.00
2019-05-05T10:35:04.948Z,4.57
2019-05-05T10:37:38.180Z,2.50
2019-05-05T10:40:12.820Z,4.63
2019-05-05T10:42:53.984Z,2.40
2019-05-05T10:45:26.560Z,31.33
2019-05-05T10:48:00.545Z,3.80
2019-05-05T10:50:34.205Z,3.00
2019-05-05T10:53:07.211Z,1.70
2019-05-05T10:55:39.825Z,5.63
2019-05-05T10:58:13.824Z,2.40
2019-05-05T11:00:50.150Z,3.63
2019-05-05T11:03:23.696Z,10.23
2019-05-05T11:05:56.798Z,37.47
2019-05-05T11:08:30.833Z,35.70
2019-05-05T11:11:04.404Z,32.80
2019-05-05T11:13:37.287Z,21.77
2019-05-05T11:16:09.980Z,13.07
2019-05-05T11:18:43.094Z,12.57
2019-05-05T11:21:15.935Z,4.67
2019-05-05T11:23:48.605Z,4.23
2019-05-05T11:26:21.460Z,2.70
2019-05-05T11:28:54.436Z,2.13
2019-05-05T11:31:27.268Z,35.30
2019-05-05T11:34:04.905Z,171.33
2019-05-05T11:36:48.195Z,6.43
2019-05-05T11:39:23.438Z,37.07
2019-05-05T11:41:55.738Z,10.73
2019-05-05T11:44:28.641Z,2.27
2019-05-05T11:47:03.545Z,2.37
2019-05-05T11:49:35.900Z,8.67
2019-05-05T11:52:08.572Z,2.20
2019-05-05T11:54:41.545Z,3.13
2019-05-05T11:57:14.159Z,2.80
2019-05-05T11:59:46.895Z,2.10
2019-05-05T12:02:19.760Z,6.20
2019-05-05T12:04:54.078Z,71.30
2019-05-05T12:07:26.685Z,8.53
2019-05-05T12:09:59.714Z,2.47
2019-05-05T12:12:33.682Z,4.50
2019-05-05T12:15:08.850Z,1.93
2019-05-05T12:17:41.505Z,1.27
2019-05-05T12:20:17.375Z,63.23
2019-05-05T12:22:50.100Z,66.93
2019-05-05T12:25:44.120Z,26.33
2019-05-05T12:28:34.648Z,4.93
2019-05-05T12:31:14.017Z,4.90
2019-05-05T12:33:46.319Z,3.63
2019-05-05T12:36:19.180Z,1.93
2019-05-05T12:38:54.392Z,6.27
2019-05-05T12:41:26.515Z,3.47
2019-05-05T12:43:59.176Z,3.87
2019-05-05T12:46:36.155Z,2.03
2019-05-05T12:49:10.815Z,2.90
2019-05-05T12:51:44.007Z,3.73
2019-05-05T12:54:16.860Z,3.47
2019-05-05T12:56:50.095Z,21.03
2019-05-05T12:59:25.018Z,5.57
2019-05-05T13:01:57.840Z,24.37
2019-05-05T13:04:30.566Z,20.50
2019-05-05T13:07:04.988Z,30.00
2019-05-05T13:09:38.366Z,18.57
2019-05-05T13:12:11.315Z,16.17
2019-05-05T13:14:44.105Z,12.13
2019-05-05T13:17:16.990Z,21.40
2019-05-05T13:19:54.151Z,12.00
2019-05-05T13:22:41.587Z,6.57
2019-05-05T13:25:35.826Z,2.83
2019-05-05T13:28:08.960Z,8.87
2019-05-05T13:30:43.504Z,14.00
2019-05-05T13:33:16.995Z,14.13
2019-05-05T13:35:50.970Z,2.23
2019-05-05T13:38:24.051Z,3.00
2019-05-05T13:40:56.894Z,5.37
2019-05-05T13:43:29.516Z,2.50
2019-05-05T13:46:03.990Z,2.90
2019-05-05T13:48:36.685Z,9.87
2019-05-05T13:51:11.026Z,4.17
2019-05-05T13:53:44.880Z,4.13
2019-05-05T13:56:17.310Z,2.37
2019-05-05T13:58:51.425Z,2.37
2019-05-05T14:01:24.155Z,5.50
2019-05-05T14:03:57.800Z,8.37
2019-05-05T14:06:30.760Z,6.87
2019-05-05T14:09:04.775Z,2.00
2019-05-05T14:11:38.996Z,18.27
2019-05-05T14:14:13.647Z,4.73
2019-05-05T14:16:46.169Z,5.10
2019-05-05T14:19:18.940Z,9.50
2019-05-05T14:21:53.681Z,1.90
2019-05-05T14:24:28.200Z,3.73
2019-05-05T14:27:01.002Z,4.00
2019-05-05T14:29:47.610Z,4.23
2019-05-05T14:32:23.886Z,1.90
2019-05-05T14:35:00.430Z,3.53
2019-05-05T14:37:37.760Z,5.00
2019-05-05T14:40:11.137Z,6.27
2019-05-05T14:42:43.809Z,9.20
2019-05-05T14:45:17.481Z,5.30
2019-05-05T14:47:50.175Z,2.40
2019-05-05T14:50:24.236Z,5.47
2019-05-05T14:52:57.231Z,6.80
2019-05-05T14:55:29.632Z,2.60
2019-05-05T14:58:03.955Z,3.20
2019-05-05T15:00:39.379Z,10.67
2019-05-05T15:03:11.110Z,14.57
2019-05-05T15:05:45.465Z,3.87
2019-05-05T15:08:35.280Z,2.80
2019-05-05T15:11:09.655Z,8.83
2019-05-05T15:13:43.713Z,4.90
2019-05-05T15:16:16.910Z,8.23
2019-05-05T15:18:49.775Z,6.10
2019-05-05T15:21:23.607Z,6.07
2019-05-05T15:23:56.265Z,10.53
2019-05-05T15:26:28.845Z,9.13
2019-05-05T15:29:01.927Z,8.27
2019-05-05T15:31:34.722Z,8.20
2019-05-05T15:34:07.635Z,9.90
2019-05-05T15:36:40.810Z,8.00
2019-05-05T15:39:13.922Z,11.67
2019-05-05T15:41:46.660Z,13.03
2019-05-05T15:44:19.450Z,12.07
2019-05-05T15:46:54.926Z,6.40
2019-05-05T15:49:26.645Z,8.00
2019-05-05T15:51:59.836Z,3.53
2019-05-05T15:54:33.970Z,10.87
2019-05-05T15:57:09.606Z,13.43
2019-05-05T15:59:43.645Z,11.13
2019-05-05T16:02:16.673Z,14.70
2019-05-05T16:04:49.291Z,7.00
2019-05-05T16:07:24.125Z,10.87
2019-05-05T16:09:56.881Z,10.13
2019-05-05T16:12:34.189Z,13.07
2019-05-05T16:15:06.696Z,10.70
2019-05-05T16:17:41.004Z,16.23
2019-05-05T16:20:15.435Z,19.10
2019-05-05T16:22:49.820Z,18.67
2019-05-05T16:25:22.571Z,21.87
2019-05-05T16:27:55.316Z,19.63
2019-05-05T16:30:28.655Z,35.93
2019-05-05T16:33:01.000Z,118.80
2019-05-05T16:35:34.286Z,49.47
2019-05-05T16:38:07.035Z,46.57
2019-05-05T16:40:39.720Z,27.87
2019-05-05T16:43:16.254Z,34.53
2019-05-05T16:45:47.140Z,22.53
2019-05-05T16:48:19.896Z,10.17
2019-05-05T16:50:54.161Z,15.47
2019-05-05T16:53:37.349Z,13.60
2019-05-05T16:56:14.020Z,5.97
2019-05-05T16:58:47.050Z,11.93
2019-05-05T17:01:19.995Z,13.13
2019-05-05T17:03:54.244Z,9.07
2019-05-05T17:06:27.330Z,26.33
2019-05-05T17:08:59.951Z,15.07
2019-05-05T17:11:33.624Z,14.87
2019-05-05T17:14:10.700Z,18.83
2019-05-05T17:16:45.269Z,20.80
2019-05-05T17:19:22.015Z,14.67
2019-05-05T17:22:08.080Z,8.07
2019-05-05T17:24:40.801Z,10.27
2019-05-05T17:27:14.018Z,24.47
2019-05-05T17:29:46.731Z,24.07
2019-05-05T17:32:19.890Z,16.27
2019-05-05T17:34:54.119Z,19.50
2019-05-05T17:37:27.091Z,18.03
2019-05-05T17:40:01.550Z,11.87
2019-05-05T17:42:39.110Z,13.40
2019-05-05T17:45:14.228Z,11.63
2019-05-05T17:47:48.960Z,8.50
2019-05-05T17:50:23.870Z,11.77
2019-05-05T17:52:58.165Z,12.73
2019-05-05T17:55:35.249Z,11.03
2019-05-05T17:58:08.219Z,10.27
2019-05-05T18:00:43.889Z,28.27
2019-05-05T18:03:17.151Z,23.63
2019-05-05T18:06:05.903Z,28.90
2019-05-05T18:08:38.735Z,22.20
2019-05-05T18:11:25.278Z,19.00
2019-05-05T18:14:14.618Z,13.27
2019-05-05T18:16:47.475Z,11.13
2019-05-05T18:19:20.614Z,14.33
2019-05-05T18:21:54.735Z,8.87
2019-05-05T18:24:27.575Z,9.63
2019-05-05T18:27:00.550Z,11.90
2019-05-05T18:29:34.021Z,10.30
2019-05-05T18:32:06.806Z,14.23
2019-05-05T18:34:39.351Z,16.97
2019-05-05T18:37:11.900Z,31.87
2019-05-05T18:39:44.795Z,74.07
2019-05-05T18:42:18.896Z,92.27
2019-05-05T18:44:55.709Z,115.33
2019-05-05T18:47:28.430Z,144.97
2019-05-05T18:50:01.088Z,146.43
2019-05-05T18:52:34.682Z,123.70
2019-05-05T18:55:09.400Z,92.00
2019-05-05T18:57:43.470Z,73.63
2019-05-05T19:00:19.355Z,55.57
2019-05-05T19:02:53.746Z,52.30
2019-05-05T19:05:39.649Z,46.43
2019-05-05T19:08:26.250Z,52.03
2019-05-05T19:10:58.974Z,49.00
2019-05-05T19:13:33.933Z,43.50
2019-05-05T19:16:06.265Z,37.27
2019-05-05T19:18:39.080Z,40.90
2019-05-05T19:21:11.652Z,34.70
2019-05-05T19:23:44.813Z,25.67
2019-05-05T19:26:18.050Z,23.53
2019-05-05T19:28:51.115Z,20.37
2019-05-05T19:31:23.770Z,21.10
2019-05-05T19:33:56.370Z,22.97
2019-05-05T19:36:29.065Z,27.03
2019-05-05T19:39:04.118Z,21.00
2019-05-05T19:41:37.865Z,14.97
2019-05-05T19:44:10.390Z,17.07
2019-05-05T19:46:44.850Z,16.70
2019-05-05T19:49:20.824Z,17.40
2019-05-05T19:51:54.254Z,21.90
2019-05-05T19:54:26.973Z,19.90
2019-05-05T19:56:59.671Z,16.33
2019-05-05T19:59:33.846Z,16.67
2019-05-05T20:02:08.159Z,8.23
2019-05-05T20:04:40.730Z,14.97
2019-05-05T20:07:13.915Z,28.70
2019-05-05T20:09:46.820Z,36.33
2019-05-05T20:12:19.824Z,33.93
2019-05-05T20:14:54.432Z,38.47
2019-05-05T20:17:35.362Z,56.60
2019-05-05T20:20:09.771Z,40.97
2019-05-05T20:22:44.426Z,34.57
2019-05-05T20:25:17.514Z,36.93
2019-05-05T20:27:50.280Z,37.17
2019-05-05T20:30:24.713Z,46.20
2019-05-05T20:33:05.214Z,46.00
2019-05-05T20:35:45.935Z,39.77
2019-05-05T20:38:23.827Z,47.87
2019-05-05T20:40:58.120Z,55.43
2019-05-05T20:43:30.880Z,58.30
2019-05-05T20:46:04.488Z,49.00
2019-05-05T20:48:37.580Z,55.80
2019-05-05T20:51:10.175Z,26.30
2019-05-05T20:53:44.813Z,29.90
2019-05-05T20:56:17.210Z,47.30
2019-05-05T20:58:50.070Z,81.83
2019-05-05T21:01:24.648Z,203.47
2019-05-05T21:03:57.680Z,105.23
2019-05-05T21:06:30.571Z,209.17
2019-05-05T21:09:04.320Z,108.73
2019-05-05T21:11:37.469Z,109.87
2019-05-05T21:14:10.251Z,82.67
2019-05-05T21:16:44.066Z,58.87
2019-05-05T21:19:16.905Z,87.20
2019-05-05T21:21:51.115Z,139.13
2019-05-05T21:24:24.072Z,127.30
2019-05-05T21:26:58.281Z,98.37
2019-05-05T21:29:39.555Z,63.83
2019-05-05T21:32:05.357Z,111.13
2019-05-05T21:34:38.270Z,93.57
2019-05-05T21:37:11.010Z,153.37
2019-05-05T21:39:45.441Z,119.70
2019-05-05T21:42:19.365Z,80.70
2019-05-05T21:44:53.910Z,148.97
2019-05-05T21:47:26.354Z,134.17
2019-05-05T21:49:59.120Z,129.13
2019-05-05T21:52:34.603Z,94.90
2019-05-05T21:55:25.390Z,182.10
2019-05-05T21:58:09.745Z,77.33
2019-05-05T22:00:48.435Z,39.50
2019-05-05T22:03:23.682Z,25.40
2019-05-05T22:05:56.616Z,30.13
2019-05-05T22:08:29.500Z,19.47
2019-05-05T22:11:03.923Z,15.77
2019-05-05T22:13:37.086Z,21.90
2019-05-05T22:16:09.964Z,34.83
2019-05-05T22:18:44.661Z,46.90
2019-05-05T22:21:18.685Z,38.27
2019-05-05T22:24:12.844Z,72.27
2019-05-05T22:26:44.889Z,82.63
2019-05-05T22:29:17.815Z,88.90
2019-05-05T22:31:50.551Z,87.63
2019-05-05T22:34:24.103Z,88.83
2019-05-05T22:36:57.340Z,91.43
2019-05-05T22:39:30.174Z,95.20
2019-05-05T22:42:04.710Z,104.37
2019-05-05T22:44:37.249Z,104.23
2019-05-05T22:47:10.062Z,100.27
2019-05-05T22:49:44.394Z,111.53
2019-05-05T22:52:18.600Z,119.57
2019-05-05T22:54:51.434Z,70.07
2019-05-05T22:57:24.721Z,49.50
2019-05-05T22:59:57.349Z,48.37
2019-05-05T23:02:33.821Z,60.23
2019-05-05T23:05:14.665Z,82.63
2019-05-05T23:07:47.531Z,67.33
2019-05-05T23:10:20.259Z,66.30
2019-05-05T23:12:54.412Z,61.37
2019-05-05T23:15:27.225Z,58.50
2019-05-05T23:18:03.695Z,64.00
2019-05-05T23:21:08.384Z,57.17
2019-05-05T23:23:48.531Z,68.10
2019-05-05T23:26:25.652Z,54.73
2019-05-05T23:28:58.613Z,72.30
2019-05-05T23:31:33.434Z,82.77
2019-05-05T23:34:05.640Z,266.30
2019-05-05T23:36:38.397Z,65.53
2019-05-05T23:39:13.461Z,57.57
2019-05-05T23:41:45.724Z,67.60
2019-05-05T23:44:18.630Z,72.73
2019-05-05T23:46:51.241Z,74.47
2019-05-05T23:49:24.370Z,77.83
2019-05-05T23:51:57.075Z,109.27
2019-05-05T23:54:29.846Z,83.57
2019-05-05T23:57:04.648Z,92.20
2019-05-05T23:59:37.297Z,76.73
